Time;durP1;ratioP1;P1;durP2;ratioP2;P2;SDS_P1;SDS_P2;PMS_P1;PMS_P2;Temp;Humidity;BMP_temperature;BMP_pressure;BME280_temperature;BME280_humidity;BME280_pressure;Samples;Min_cycle;Max_cycle;Signal;HPM_P1;HPM_P2
2023/05/26 00:01:00;;;;;;;19.02;3.80;;;;;;;;;;6142955;23;20025;-60
2023/05/26 00:03:27;;;;;;;19.15;3.67;;;;;;;;;;6143550;23;20029;-60
2023/05/26 00:06:01;;;;;;;21.75;4.20;;;;;;;;;;6142089;23;20497;-60
2023/05/26 00:08:28;;;;;;;16.77;3.47;;;;;;;;;;6143249;23;20033;-60
2023/05/26 00:11:02;;;;;;;21.13;3.97;;;;;;;;;;6142483;23;20052;-59
2023/05/26 00:13:29;;;;;;;17.65;3.97;;;;;;;;;;6143951;23;20096;-59
2023/05/26 00:16:03;;;;;;;20.42;4.15;;;;;;;;;;6143183;23;20470;-59
2023/05/26 00:18:42;;;;;;;14.13;3.57;;;;;;;;;;5798586;23;8112215;-59
2023/05/26 00:21:17;;;;;;;17.70;3.95;;;;;;;;;;6143677;23;20025;-59
2023/05/26 00:23:44;;;;;;;15.63;4.00;;;;;;;;;;6143069;23;20033;-59
2023/05/26 00:26:11;;;;;;;24.63;4.90;;;;;;;;;;6143429;23;20036;-50
2023/05/26 00:28:45;;;;;;;20.08;4.15;;;;;;;;;;6142044;23;20421;-50
2023/05/26 00:31:12;;;;;;;18.13;4.22;;;;;;;;;;6141239;23;20021;-47
2023/05/26 00:33:39;;;;;;;15.63;3.78;;;;;;;;;;6144115;23;20064;-50
2023/05/26 00:36:13;;;;;;;16.92;3.83;;;;;;;;;;6143441;23;20053;-50
2023/05/26 00:38:40;;;;;;;22.30;3.95;;;;;;;;;;6145628;23;20026;-50
2023/05/26 00:41:07;;;;;;;22.05;4.35;;;;;;;;;;6144090;23;20029;-52
2023/05/26 00:43:42;;;;;;;17.02;3.90;;;;;;;;;;6145730;23;20029;-58
2023/05/26 00:46:09;;;;;;;18.13;3.90;;;;;;;;;;6143292;23;20096;-57
2023/05/26 00:48:36;;;;;;;19.30;4.13;;;;;;;;;;6143620;23;20038;-59
2023/05/26 00:51:11;;;;;;;14.95;3.97;;;;;;;;;;6139925;23;20025;-59
2023/05/26 00:53:43;;;;;;;18.10;3.40;;;;;;;;;;6145267;23;20037;-65
2023/05/26 00:56:18;;;;;;;21.17;4.40;;;;;;;;;;6142675;23;20025;-59
2023/05/26 00:58:46;;;;;;;14.25;3.90;;;;;;;;;;6142557;23;20025;-60
2023/05/26 01:01:13;;;;;;;20.05;4.28;;;;;;;;;;6141043;23;20049;-59
2023/05/26 01:03:47;;;;;;;18.23;4.60;;;;;;;;;;6143914;23;20029;-59
2023/05/26 01:06:15;;;;;;;23.83;4.47;;;;;;;;;;6141970;23;20120;-59
2023/05/26 01:08:49;;;;;;;21.15;3.95;;;;;;;;;;6145274;23;20137;-59
2023/05/26 01:11:16;;;;;;;18.13;3.90;;;;;;;;;;6142460;23;20029;-60
2023/05/26 01:13:53;;;;;;;18.85;4.35;;;;;;;;;;6143169;23;20025;-59
2023/05/26 01:16:29;;;;;;;17.25;3.75;;;;;;;;;;6142020;23;20025;-59
2023/05/26 01:19:19;;;;;;;18.08;4.03;;;;;;;;;;6144156;23;20104;-59
2023/05/26 01:21:55;;;;;;;21.27;4.13;;;;;;;;;;6144412;23;20030;-65
2023/05/26 01:24:30;;;;;;;20.02;4.38;;;;;;;;;;6145141;23;20764;-50
2023/05/26 01:27:18;;;;;;;18.67;4.30;;;;;;;;;;6142386;23;20762;-52
2023/05/26 01:29:45;;;;;;;19.02;4.47;;;;;;;;;;6145120;23;20092;-53
2023/05/26 01:32:20;;;;;;;30.92;5.32;;;;;;;;;;6144857;23;20025;-52
2023/05/26 01:34:47;;;;;;;19.88;4.13;;;;;;;;;;6142447;23;20032;-52
2023/05/26 01:37:14;;;;;;;18.50;4.30;;;;;;;;;;6143285;23;20675;-54
2023/05/26 01:39:48;;;;;;;18.15;4.25;;;;;;;;;;6146139;23;20030;-54
2023/05/26 01:42:24;;;;;;;19.27;3.90;;;;;;;;;;6143261;23;20022;-60
2023/05/26 01:45:03;;;;;;;23.55;4.88;;;;;;;;;;6142641;23;20028;-59
2023/05/26 01:47:37;;;;;;;26.13;4.88;;;;;;;;;;6143101;23;20041;-59
2023/05/26 01:50:06;;;;;;;31.45;4.78;;;;;;;;;;6143073;23;20536;-60
2023/05/26 01:52:34;;;;;;;23.70;4.00;;;;;;;;;;6142924;23;20394;-52
2023/05/26 01:55:08;;;;;;;19.33;3.75;;;;;;;;;;6139532;23;20453;-49
2023/05/26 01:57:35;;;;;;;;;;;;;;;;;;6143094;23;20026;-51
2023/05/26 02:00:12;;;;;;;21.08;3.67;;;;;;;;;;6143203;23;19951;-53
2023/05/26 02:02:39;;;;;;;24.08;4.90;;;;;;;;;;6144842;23;20026;-49
2023/05/26 02:05:13;;;;;;;26.88;4.20;;;;;;;;;;6144615;23;20029;-53
2023/05/26 02:07:44;;;;;;;21.95;3.95;;;;;;;;;;6144773;23;20485;-50
2023/05/26 02:10:12;;;;;;;20.88;4.57;;;;;;;;;;6145453;23;20076;-50
2023/05/26 02:12:46;;;;;;;18.10;4.13;;;;;;;;;;6144224;23;20082;-46
2023/05/26 02:15:13;;;;;;;19.00;4.25;;;;;;;;;;6145013;23;20529;-52
2023/05/26 02:17:47;;;;;;;21.95;4.22;;;;;;;;;;6145743;23;20025;-51
2023/05/26 02:20:21;;;;;;;17.23;3.67;;;;;;;;;;6142952;23;20033;-65
2023/05/26 02:22:55;;;;;;;11.55;3.55;;;;;;;;;;6142509;23;20032;-55
2023/05/26 02:25:22;;;;;;;14.13;3.67;;;;;;;;;;6144411;23;20795;-58
2023/05/26 02:27:49;;;;;;;15.15;3.88;;;;;;;;;;6143563;23;20488;-54
2023/05/26 02:30:23;;;;;;;22.67;4.28;;;;;;;;;;6143787;23;20025;-55
2023/05/26 02:32:50;;;;;;;16.27;3.45;;;;;;;;;;6144562;23;20025;-56
2023/05/26 02:35:24;;;;;;;16.83;3.67;;;;;;;;;;6144999;23;20026;-56
2023/05/26 02:37:51;;;;;;;19.13;4.07;;;;;;;;;;6145637;23;20022;-52
2023/05/26 02:40:25;;;;;;;12.73;3.03;;;;;;;;;;6147410;23;20449;-55
2023/05/26 02:42:52;;;;;;;12.38;3.30;;;;;;;;;;6146098;23;20029;-53
2023/05/26 02:45:19;;;;;;;24.27;4.13;;;;;;;;;;6146822;23;20029;-53
2023/05/26 02:47:53;;;;;;;15.18;3.40;;;;;;;;;;6146760;23;20355;-54
2023/05/26 02:50:22;;;;;;;25.02;3.88;;;;;;;;;;6145171;23;20032;-57
2023/05/26 02:52:56;;;;;;;17.13;3.95;;;;;;;;;;6146086;23;20064;-55
2023/05/26 02:55:27;;;;;;;13.80;3.78;;;;;;;;;;6146467;23;20147;-52
2023/05/26 02:58:02;;;;;;;19.10;3.47;;;;;;;;;;6145354;23;20080;-58
2023/05/26 03:00:29;;;;;;;13.48;3.22;;;;;;;;;;6144639;23;20029;-59
2023/05/26 03:02:56;;;;;;;20.15;3.97;;;;;;;;;;6144996;23;20021;-59
2023/05/26 03:05:30;;;;;;;18.92;3.60;;;;;;;;;;6145626;23;20025;-56
2023/05/26 03:07:57;;;;;;;15.88;3.33;;;;;;;;;;6145355;23;20544;-55
2023/05/26 03:10:33;;;;;;;20.70;3.30;;;;;;;;;;6146088;23;20041;-59
2023/05/26 03:13:00;;;;;;;15.57;3.78;;;;;;;;;;6144421;23;20030;-59
2023/05/26 03:15:35;;;;;;;18.02;2.70;;;;;;;;;;6146330;23;20033;-59
2023/05/26 03:18:09;;;;;;;16.70;3.80;;;;;;;;;;6146120;23;20021;-59
2023/05/26 03:20:46;;;;;;;;;;;;;;;;;;6146035;23;20252;-59
2023/05/26 03:23:20;;;;;;;9.73;2.90;;;;;;;;;;6141283;23;19920;-59
2023/05/26 03:25:48;;;;;;;15.50;2.65;;;;;;;;;;6144722;23;20029;-59
2023/05/26 03:28:15;;;;;;;22.33;3.70;;;;;;;;;;6144136;23;20104;-58
2023/05/26 03:30:49;;;;;;;14.43;3.40;;;;;;;;;;6142298;23;20393;-58
2023/05/26 03:33:16;;;;;;;16.38;3.78;;;;;;;;;;6143043;23;20026;-59
2023/05/26 03:35:50;;;;;;;17.95;3.80;;;;;;;;;;6142840;23;20770;-48
2023/05/26 03:38:17;;;;;;;14.88;3.78;;;;;;;;;;6144331;23;20026;-55
2023/05/26 03:40:51;;;;;;;14.90;3.45;;;;;;;;;;6144849;23;20029;-56
2023/05/26 03:43:20;;;;;;;13.93;2.80;;;;;;;;;;6145629;23;20532;-55
2023/05/26 03:45:55;;;;;;;16.35;3.33;;;;;;;;;;6146310;23;20022;-59
2023/05/26 03:48:22;;;;;;;14.38;3.40;;;;;;;;;;6145329;23;20505;-55
2023/05/26 03:50:56;;;;;;;14.88;2.92;;;;;;;;;;6144844;23;20030;-56
2023/05/26 03:53:24;;;;;;;16.55;3.33;;;;;;;;;;6144620;23;20528;-58
2023/05/26 03:55:51;;;;;;;17.23;3.47;;;;;;;;;;6144378;23;20033;-58
2023/05/26 03:58:25;;;;;;;17.58;3.38;;;;;;;;;;6145385;23;20032;-58
2023/05/26 04:00:52;;;;;;;10.10;2.80;;;;;;;;;;6142412;23;20033;-58
2023/05/26 04:03:26;;;;;;;26.38;3.78;;;;;;;;;;6144717;23;20025;-51
2023/05/26 04:05:54;;;;;;;14.60;2.88;;;;;;;;;;6141650;23;20109;-53
2023/05/26 04:08:21;;;;;;;15.82;3.30;;;;;;;;;;6142757;23;20025;-50
2023/05/26 04:10:55;;;;;;;13.88;3.40;;;;;;;;;;6140720;23;20088;-54
2023/05/26 04:13:22;;;;;;;;;;;;;;;;;;6144791;23;20053;-52
2023/05/26 04:15:56;;;;;;;12.35;2.78;;;;;;;;;;6143185;23;19940;-49
2023/05/26 04:18:23;;;;;;;15.05;2.85;;;;;;;;;;6145204;23;20036;-52
2023/05/26 04:21:10;;;;;;;14.50;3.17;;;;;;;;;;6145721;23;20026;-58
2023/05/26 04:23:51;;;;;;;14.33;3.50;;;;;;;;;;6145490;23;20068;-53
2023/05/26 04:26:28;;;;;;;15.63;2.97;;;;;;;;;;6142786;23;20088;-50
2023/05/26 04:28:56;;;;;;;19.92;3.42;;;;;;;;;;6146248;23;20096;-52
2023/05/26 04:31:24;;;;;;;17.15;4.10;;;;;;;;;;6140306;23;20025;-53
2023/05/26 04:33:58;;;;;;;11.23;3.10;;;;;;;;;;6143432;23;20060;-48
2023/05/26 04:36:25;;;;;;;11.32;3.45;;;;;;;;;;6142778;23;20030;-52
2023/05/26 04:38:54;;;;;;;12.30;2.70;;;;;;;;;;6139964;23;20026;-50
2023/05/26 04:41:28;;;;;;;11.07;2.97;;;;;;;;;;6143019;23;20033;-56
2023/05/26 04:43:55;;;;;;;12.82;2.72;;;;;;;;;;6141022;23;20022;-57
2023/05/26 04:46:23;;;;;;;17.13;2.95;;;;;;;;;;6141396;23;20026;-57
2023/05/26 04:48:58;;;;;;;16.63;3.08;;;;;;;;;;6143855;23;20021;-57
2023/05/26 04:51:25;;;;;;;10.38;2.67;;;;;;;;;;6142858;23;20027;-65
2023/05/26 04:53:52;;;;;;;10.38;2.80;;;;;;;;;;6142038;23;20025;-59
2023/05/26 04:56:26;;;;;;;11.60;2.65;;;;;;;;;;6143963;23;20987;-59
2023/05/26 04:58:53;;;;;;;15.20;3.00;;;;;;;;;;6146029;23;20033;-60
2023/05/26 05:01:28;;;;;;;9.95;2.50;;;;;;;;;;6146121;23;20084;-59
2023/05/26 05:03:55;;;;;;;14.73;2.90;;;;;;;;;;6144613;23;20040;-60
2023/05/26 05:06:23;;;;;;;13.70;2.88;;;;;;;;;;6146480;23;20030;-60
2023/05/26 05:08:57;;;;;;;12.70;2.55;;;;;;;;;;6146282;23;20017;-50
2023/05/26 05:11:24;;;;;;;12.13;3.13;;;;;;;;;;6144946;23;20560;-51
2023/05/26 05:13:52;;;;;;;14.80;2.88;;;;;;;;;;6140157;23;20076;-47
2023/05/26 05:16:26;;;;;;;9.80;2.83;;;;;;;;;;6146493;23;20401;-52
2023/05/26 05:18:53;;;;;;;9.35;2.22;;;;;;;;;;6143602;23;20096;-54
2023/05/26 05:21:33;;;;;;;7.45;2.20;;;;;;;;;;6147001;23;20068;-53
2023/05/26 05:24:01;;;;;;;7.30;1.95;;;;;;;;;;6141020;23;20072;-52
2023/05/26 05:26:36;;;;;;;8.90;2.53;;;;;;;;;;6143876;23;20029;-53
2023/05/26 05:29:04;;;;;;;7.15;2.25;;;;;;;;;;6143971;23;20017;-55
2023/05/26 05:31:31;;;;;;;;;;;;;;;;;;6117884;23;20053;-55
2023/05/26 05:34:06;;;;;;;9.10;1.92;;;;;;;;;;6145080;23;19940;-52
2023/05/26 05:36:33;;;;;;;8.75;1.95;;;;;;;;;;6146048;23;20375;-52
2023/05/26 05:39:07;;;;;;;8.95;2.15;;;;;;;;;;6145338;23;20065;-50
2023/05/26 05:41:35;;;;;;;15.18;2.38;;;;;;;;;;6145637;23;20433;-53
2023/05/26 05:44:03;;;;;;;5.68;2.03;;;;;;;;;;6144566;23;20030;-51
2023/05/26 05:46:37;;;;;;;9.68;2.20;;;;;;;;;;6142024;23;20512;-52
2023/05/26 05:49:04;;;;;;;7.78;2.75;;;;;;;;;;6144165;23;20393;-47
2023/05/26 05:51:32;;;;;;;10.30;1.80;;;;;;;;;;6144054;23;20029;-59
2023/05/26 05:54:06;;;;;;;8.57;2.22;;;;;;;;;;6144711;23;20025;-60
2023/05/26 05:56:33;;;;;;;14.77;2.00;;;;;;;;;;6146006;23;20025;-60
2023/05/26 05:59:07;;;;;;;9.00;2.00;;;;;;;;;;6144201;23;20030;-60
2023/05/26 06:01:34;;;;;;;;;;;;;;;;;;6146898;23;20033;-60
2023/05/26 06:04:02;;;;;;;7.22;1.75;;;;;;;;;;6145149;23;19975;-60
2023/05/26 06:06:36;;;;;;;10.00;1.98;;;;;;;;;;6147720;23;20028;-53
2023/05/26 06:09:04;;;;;;;4.57;1.83;;;;;;;;;;6145046;23;20481;-55
2023/05/26 06:11:38;;;;;;;6.35;1.80;;;;;;;;;;6147017;23;20037;-55
2023/05/26 06:14:05;;;;;;;7.75;1.85;;;;;;;;;;6145552;23;20026;-55
2023/05/26 06:16:32;;;;;;;7.97;2.00;;;;;;;;;;6146038;23;20307;-55
2023/05/26 06:19:13;;;;;;;3.85;1.50;;;;;;;;;;6147494;23;20018;-58
2023/05/26 06:21:46;;;;;;;7.22;2.08;;;;;;;;;;6148882;23;20429;-58
2023/05/26 06:24:21;;;;;;;5.35;1.15;;;;;;;;;;6147256;23;20100;-58
2023/05/26 06:26:48;;;;;;;4.63;1.55;;;;;;;;;;6147482;23;20026;-58
2023/05/26 06:29:16;;;;;;;3.90;1.35;;;;;;;;;;6145870;23;20064;-58
2023/05/26 06:31:50;;;;;;;4.10;1.63;;;;;;;;;;6145664;23;20448;-59
2023/05/26 06:34:17;;;;;;;6.13;1.80;;;;;;;;;;6146449;23;20104;-59
2023/05/26 06:36:51;;;;;;;8.07;1.65;;;;;;;;;;6145187;23;20425;-58
2023/05/26 06:39:18;;;;;;;4.72;1.63;;;;;;;;;;6145147;23;20018;-59
2023/05/26 06:41:45;;;;;;;6.63;1.80;;;;;;;;;;6147066;23;20022;-59
2023/05/26 06:44:19;;;;;;;8.15;1.75;;;;;;;;;;6146736;23;20092;-61
2023/05/26 06:46:46;;;;;;;16.50;1.92;;;;;;;;;;6148087;23;20084;-50
2023/05/26 06:49:20;;;;;;;5.95;1.60;;;;;;;;;;6147021;23;20663;-47
2023/05/26 06:51:48;;;;;;;2.80;1.42;;;;;;;;;;6147550;23;20489;-48
2023/05/26 06:54:15;;;;;;;4.75;1.27;;;;;;;;;;6145504;23;20770;-47
2023/05/26 06:56:49;;;;;;;4.35;1.40;;;;;;;;;;6146319;23;20018;-51
2023/05/26 06:59:16;;;;;;;5.93;1.40;;;;;;;;;;6147189;23;20076;-51
2023/05/26 07:01:50;;;;;;;5.55;1.50;;;;;;;;;;6148012;23;20033;-51
2023/05/26 07:04:17;;;;;;;;;;;;;;;;;;6146298;23;20480;-50
2023/05/26 07:06:44;;;;;;;5.25;1.88;;;;;;;;;;6147962;23;19991;-53
2023/05/26 07:09:18;;;;;;;7.10;1.63;;;;;;;;;;6141733;23;20026;-51
2023/05/26 07:11:45;;;;;;;6.05;1.25;;;;;;;;;;6147279;23;20029;-62
2023/05/26 07:14:12;;;;;;;5.85;1.60;;;;;;;;;;6144758;23;20088;-58
2023/05/26 07:16:46;;;;;;;3.53;1.08;;;;;;;;;;6147181;23;20026;-62
2023/05/26 07:19:20;;;;;;;3.17;1.15;;;;;;;;;;6146193;23;20022;-62
2023/05/26 07:22:01;;;;;;;4.22;1.20;;;;;;;;;;6146447;23;20493;-63
2023/05/26 07:24:28;;;;;;;4.32;1.02;;;;;;;;;;6145428;23;20052;-63
2023/05/26 07:27:02;;;;;;;4.35;1.20;;;;;;;;;;6145858;23;20025;-62
2023/05/26 07:29:29;;;;;;;5.97;1.20;;;;;;;;;;6147864;23;20081;-63
2023/05/26 07:31:56;;;;;;;1.73;0.88;;;;;;;;;;6146291;23;20496;-58
2023/05/26 07:34:31;;;;;;;7.40;1.30;;;;;;;;;;6147307;23;20092;-58
2023/05/26 07:36:58;;;;;;;4.72;1.60;;;;;;;;;;6146063;23;20095;-58
2023/05/26 07:39:32;;;;;;;3.47;1.35;;;;;;;;;;6145968;23;20018;-57
2023/05/26 07:41:59;;;;;;;4.13;1.05;;;;;;;;;;6146122;23;20064;-52
2023/05/26 07:44:26;;;;;;;2.20;1.05;;;;;;;;;;6146457;23;20572;-64
2023/05/26 07:47:01;;;;;;;3.10;0.65;;;;;;;;;;6146332;23;20092;-64
2023/05/26 07:49:28;;;;;;;3.08;1.25;;;;;;;;;;6147941;23;20021;-64
2023/05/26 07:52:02;;;;;;;2.50;0.80;;;;;;;;;;6145621;23;20025;-64
2023/05/26 07:54:29;;;;;;;3.78;1.00;;;;;;;;;;6147097;23;20021;-64
2023/05/26 07:56:56;;;;;;;4.15;1.45;;;;;;;;;;6147676;23;20670;-64
2023/05/26 07:59:30;;;;;;;4.88;1.33;;;;;;;;;;6121989;23;20507;-55
2023/05/26 08:01:57;;;;;;;4.60;1.27;;;;;;;;;;6145474;23;20508;-56
2023/05/26 08:04:31;;;;;;;3.90;0.98;;;;;;;;;;6147042;23;20088;-57
2023/05/26 08:06:58;;;;;;;2.88;1.20;;;;;;;;;;6146261;23;20033;-57
2023/05/26 08:09:25;;;;;;;5.40;1.15;;;;;;;;;;6145478;23;20028;-64
2023/05/26 08:11:59;;;;;;;3.05;1.40;;;;;;;;;;6146303;23;20406;-59
2023/05/26 08:14:26;;;;;;;5.00;1.35;;;;;;;;;;6142436;23;20493;-58
2023/05/26 08:17:00;;;;;;;2.15;0.70;;;;;;;;;;6145934;23;20026;-58
2023/05/26 08:19:34;;;;;;;5.00;1.20;;;;;;;;;;6144656;23;20018;-57
2023/05/26 08:22:15;;;;;;;7.03;1.35;;;;;;;;;;6144348;23;20441;-58
2023/05/26 08:24:42;;;;;;;3.00;1.17;;;;;;;;;;6146229;23;20022;-59
2023/05/26 08:27:16;;;;;;;2.92;0.98;;;;;;;;;;6147035;23;20022;-59
2023/05/26 08:29:50;;;;;;;5.65;1.30;;;;;;;;;;6145660;23;20441;-60
2023/05/26 08:32:17;;;;;;;4.75;1.60;;;;;;;;;;6146368;23;20592;-59
2023/05/26 08:34:44;;;;;;;1.92;1.00;;;;;;;;;;6144918;23;20493;-59
2023/05/26 08:37:18;;;;;;;3.78;1.13;;;;;;;;;;6145710;23;20029;-65
2023/05/26 08:39:45;;;;;;;;;;;;;;;;;;6146850;23;20385;-58
2023/05/26 08:42:19;;;;;;;2.30;0.90;;;;;;;;;;6145500;23;19980;-57
2023/05/26 08:45:00;;;;;;;2.92;1.30;;;;;;;;;;6145510;23;20021;-57
2023/05/26 08:47:35;;;;;;;4.88;1.33;;;;;;;;;;6144261;23;20077;-57
2023/05/26 08:50:06;;;;;;;4.28;1.13;;;;;;;;;;6146154;23;20477;-57
2023/05/26 08:52:33;;;;;;;2.78;1.17;;;;;;;;;;6145069;23;20025;-58
2023/05/26 08:55:24;;;;;;;2.97;1.15;;;;;;;;;;6146128;23;20393;-65
2023/05/26 08:57:52;;;;;;;1.13;0.80;;;;;;;;;;6146871;23;20049;-64
2023/05/26 09:00:30;;;;;;;2.15;1.00;;;;;;;;;;6145415;23;20089;-64
2023/05/26 09:03:04;;;;;;;9.10;0.63;;;;;;;;;;6144931;23;20073;-65
2023/05/26 09:05:31;;;;;;;3.70;1.23;;;;;;;;;;6146034;23;20032;-57
2023/05/26 09:08:05;;;;;;;1.80;0.82;;;;;;;;;;6145715;23;20029;-58
2023/05/26 09:10:33;;;;;;;1.88;0.75;;;;;;;;;;6145748;23;20375;-67
2023/05/26 09:13:03;;;;;;;1.40;0.93;;;;;;;;;;6146313;23;20025;-66
2023/05/26 09:15:38;;;;;;;1.98;1.02;;;;;;;;;;6145666;23;20477;-67
2023/05/26 09:18:05;;;;;;;1.85;0.90;;;;;;;;;;6144943;23;20025;-67
2023/05/26 09:20:53;;;;;;;2.58;0.93;;;;;;;;;;6141086;23;20052;-65
2023/05/26 09:23:21;;;;;;;1.77;0.88;;;;;;;;;;6144137;23;20029;-66
2023/05/26 09:25:56;;;;;;;1.98;0.82;;;;;;;;;;6146084;23;20017;-52
2023/05/26 09:28:23;;;;;;;2.67;1.10;;;;;;;;;;6145970;23;20056;-54
2023/05/26 09:30:57;;;;;;;0.80;0.63;;;;;;;;;;6145738;23;20026;-54
2023/05/26 09:33:24;;;;;;;5.22;0.90;;;;;;;;;;6144958;23;20117;-52
2023/05/26 09:35:52;;;;;;;2.63;1.40;;;;;;;;;;6146733;23;20076;-66
2023/05/26 09:38:27;;;;;;;2.22;1.00;;;;;;;;;;6145925;23;20032;-66
2023/05/26 09:40:55;;;;;;;1.83;0.80;;;;;;;;;;6146984;23;20103;-67
2023/05/26 09:43:41;;;;;;;4.13;1.00;;;;;;;;;;6145402;23;20033;-66
2023/05/26 09:46:08;;;;;;;2.13;0.85;;;;;;;;;;6143783;23;20048;-67
2023/05/26 09:48:48;;;;;;;2.10;0.82;;;;;;;;;;6147720;23;20025;-66
2023/05/26 09:51:18;;;;;;;3.03;0.80;;;;;;;;;;6146422;23;20033;-67
2023/05/26 09:54:09;;;;;;;3.80;0.80;;;;;;;;;;6145829;23;20052;-52
2023/05/26 09:56:48;;;;;;;1.58;0.90;;;;;;;;;;6146665;23;20366;-53
2023/05/26 09:59:22;;;;;;;3.60;0.90;;;;;;;;;;6143287;23;20350;-51
2023/05/26 10:01:51;;;;;;;4.72;1.30;;;;;;;;;;6146600;23;20053;-52
2023/05/26 10:04:25;;;;;;;2.60;1.30;;;;;;;;;;6144135;23;20084;-58
2023/05/26 10:06:53;;;;;;;2.30;0.98;;;;;;;;;;6145494;23;20030;-67
2023/05/26 10:09:27;;;;;;;3.70;1.30;;;;;;;;;;6144961;23;20018;-66
2023/05/26 10:11:54;;;;;;;;;;;;;;;;;;6147827;23;20033;-67
2023/05/26 10:14:22;;;;;;;2.90;1.40;;;;;;;;;;6146492;23;19975;-67
2023/05/26 10:16:56;;;;;;;2.85;1.23;;;;;;;;;;6145857;23;20021;-68
2023/05/26 10:19:24;;;;;;;2.78;1.00;;;;;;;;;;6144782;23;20022;-66
2023/05/26 10:22:07;;;;;;;3.53;1.00;;;;;;;;;;6118275;23;20030;-53
2023/05/26 10:24:42;;;;;;;4.85;0.90;;;;;;;;;;6118009;23;20022;-52
2023/05/26 10:27:25;;;;;;;1.75;0.95;;;;;;;;;;6116156;23;20033;-55
2023/05/26 10:30:05;;;;;;;3.83;1.38;;;;;;;;;;6117418;23;20073;-52
2023/05/26 10:32:45;;;;;;;3.78;1.38;;;;;;;;;;6115328;23;20081;-59
2023/05/26 10:35:26;;;;;;;9.80;1.27;;;;;;;;;;6115863;23;20105;-58
2023/05/26 10:38:03;;;;;;;2.40;1.30;;;;;;;;;;6116408;23;20029;-57
2023/05/26 10:40:33;;;;;;;2.85;1.13;;;;;;;;;;6115861;23;20029;-58
2023/05/26 10:43:14;;;;;;;2.28;1.20;;;;;;;;;;6117666;23;20026;-58
2023/05/26 10:46:08;;;;;;;3.40;0.98;;;;;;;;;;6117350;23;20029;-58
2023/05/26 10:48:59;;;;;;;4.90;1.30;;;;;;;;;;6117673;23;20029;-58
2023/05/26 10:51:26;;;;;;;11.63;1.70;;;;;;;;;;6117139;23;20030;-51
2023/05/26 10:54:15;;;;;;;4.75;1.23;;;;;;;;;;6117711;23;20532;-50
2023/05/26 10:56:43;;;;;;;5.65;1.58;;;;;;;;;;6117409;23;20021;-52
2023/05/26 10:59:21;;;;;;;6.63;1.37;;;;;;;;;;6116017;23;20580;-54
2023/05/26 11:01:54;;;;;;;2.40;1.33;;;;;;;;;;6117008;23;20246;-63
2023/05/26 11:04:40;;;;;;;4.53;1.27;;;;;;;;;;6116618;23;20032;-55
2023/05/26 11:07:14;;;;;;;4.53;1.23;;;;;;;;;;6116551;23;20414;-55
2023/05/26 11:09:58;;;;;;;3.63;1.08;;;;;;;;;;6117733;23;20086;-54
2023/05/26 11:12:35;;;;;;;4.65;1.23;;;;;;;;;;6115972;23;20030;-53
2023/05/26 11:15:22;;;;;;;3.67;1.20;;;;;;;;;;6111373;23;20478;-52
2023/05/26 11:17:56;;;;;;;1.90;0.73;;;;;;;;;;6115402;23;20025;-59
2023/05/26 11:20:31;;;;;;;3.20;1.00;;;;;;;;;;6127466;23;20108;-58
2023/05/26 11:23:05;;;;;;;2.17;0.95;;;;;;;;;;6144995;23;20022;-58
2023/05/26 11:25:40;;;;;;;1.75;0.80;;;;;;;;;;6145083;23;20485;-58
2023/05/26 11:28:18;;;;;;;3.60;1.30;;;;;;;;;;6144658;23;20100;-66
2023/05/26 11:30:46;;;;;;;3.55;0.90;;;;;;;;;;6145597;23;20032;-54
2023/05/26 11:33:14;;;;;;;2.90;1.60;;;;;;;;;;6146203;23;20112;-54
2023/05/26 11:35:48;;;;;;;5.07;1.60;;;;;;;;;;6145414;23;20029;-55
2023/05/26 11:38:15;;;;;;;7.13;1.10;;;;;;;;;;6146578;23;20277;-53
2023/05/26 11:40:49;;;;;;;2.22;1.10;;;;;;;;;;6145635;23;20021;-49
2023/05/26 11:43:16;;;;;;;4.47;1.10;;;;;;;;;;6145052;23;20025;-51
2023/05/26 11:45:44;;;;;;;3.25;1.17;;;;;;;;;;6146179;23;20028;-53
2023/05/26 11:48:19;;;;;;;2.70;1.40;;;;;;;;;;6145541;23;20025;-50
2023/05/26 11:50:46;;;;;;;;;;;;;;;;;;6146109;23;20029;-49
2023/05/26 11:53:20;;;;;;;3.38;1.10;;;;;;;;;;6146238;23;20364;-49
2023/05/26 11:55:47;;;;;;;3.85;1.40;;;;;;;;;;6145362;23;20025;-50
2023/05/26 11:58:16;;;;;;;2.05;1.13;;;;;;;;;;6145221;23;20556;-65
2023/05/26 12:00:50;;;;;;;3.70;1.05;;;;;;;;;;6146409;23;20030;-54
2023/05/26 12:03:24;;;;;;;7.05;1.30;;;;;;;;;;6145121;23;20080;-52
2023/05/26 12:06:05;;;;;;;2.72;1.02;;;;;;;;;;6145286;23;20112;-53
2023/05/26 12:08:45;;;;;;;2.47;1.20;;;;;;;;;;6146595;23;20024;-53
2023/05/26 12:11:33;;;;;;;3.35;1.13;;;;;;;;;;6146002;23;20360;-51
2023/05/26 12:14:13;;;;;;;2.97;1.20;;;;;;;;;;6144979;23;20022;-50
2023/05/26 12:16:44;;;;;;;3.55;1.25;;;;;;;;;;6145871;23;20255;-64
2023/05/26 12:19:21;;;;;;;3.38;1.30;;;;;;;;;;6144709;23;20063;-64
2023/05/26 12:22:03;;;;;;;3.60;1.30;;;;;;;;;;6145245;23;20028;-64
2023/05/26 12:24:37;;;;;;;2.72;1.33;;;;;;;;;;6145275;23;20511;-51
2023/05/26 12:27:08;;;;;;;3.28;1.30;;;;;;;;;;6143639;23;20515;-66
2023/05/26 12:29:42;;;;;;;5.15;1.13;;;;;;;;;;6145134;23;20072;-64
2023/05/26 12:32:13;;;;;;;2.08;1.23;;;;;;;;;;6145435;23;20057;-64
2023/05/26 12:34:47;;;;;;;3.03;1.15;;;;;;;;;;6144340;23;20028;-64
2023/05/26 12:37:14;;;;;;;5.38;1.20;;;;;;;;;;6146654;23;20099;-64
2023/05/26 12:39:41;;;;;;;3.55;1.40;;;;;;;;;;6144618;23;20025;-64
2023/05/26 12:42:15;;;;;;;3.65;1.33;;;;;;;;;;6144595;23;20077;-64
2023/05/26 12:44:42;;;;;;;5.60;1.35;;;;;;;;;;6145832;23;20088;-59
2023/05/26 12:47:16;;;;;;;3.97;1.20;;;;;;;;;;6146160;23;20028;-59
2023/05/26 12:49:43;;;;;;;7.93;1.63;;;;;;;;;;6144333;23;20493;-60
2023/05/26 12:52:10;;;;;;;2.53;1.00;;;;;;;;;;6144197;23;20108;-59
2023/05/26 12:54:44;;;;;;;2.55;1.10;;;;;;;;;;6144544;23;20029;-51
2023/05/26 12:57:11;;;;;;;2.90;1.27;;;;;;;;;;6144592;23;20025;-64
2023/05/26 12:59:45;;;;;;;5.50;1.25;;;;;;;;;;6145223;23;20028;-64
2023/05/26 13:02:12;;;;;;;2.15;1.40;;;;;;;;;;6144426;23;20021;-65
2023/05/26 13:04:40;;;;;;;2.08;1.00;;;;;;;;;;6144771;23;20029;-63
2023/05/26 13:07:14;;;;;;;2.33;0.77;;;;;;;;;;6146269;23;20022;-64
2023/05/26 13:09:42;;;;;;;6.50;1.48;;;;;;;;;;6144154;23;20116;-64
2023/05/26 13:12:17;;;;;;;4.38;1.48;;;;;;;;;;6144913;23;20203;-57
2023/05/26 13:14:44;;;;;;;4.38;1.25;;;;;;;;;;6144487;23;20022;-58
2023/05/26 13:17:11;;;;;;;1.52;1.10;;;;;;;;;;6145816;23;20072;-55
2023/05/26 13:19:58;;;;;;;3.33;0.93;;;;;;;;;;6143802;23;20522;-55
2023/05/26 13:22:32;;;;;;;2.90;1.05;;;;;;;;;;6144905;23;20025;-56
2023/05/26 13:25:06;;;;;;;5.43;1.20;;;;;;;;;;6145189;23;20034;-59
2023/05/26 13:27:33;;;;;;;6.43;1.27;;;;;;;;;;6145962;23;20049;-58
2023/05/26 13:30:00;;;;;;;1.88;1.10;;;;;;;;;;6144568;23;20625;-57
2023/05/26 13:32:36;;;;;;;2.55;1.00;;;;;;;;;;6144946;23;20088;-58
2023/05/26 13:35:03;;;;;;;7.88;1.02;;;;;;;;;;6143930;23;20045;-58
2023/05/26 13:37:30;;;;;;;1.75;1.00;;;;;;;;;;6145865;23;20018;-58
2023/05/26 13:40:04;;;;;;;2.05;0.85;;;;;;;;;;6144700;23;20084;-55
2023/05/26 13:42:34;;;;;;;;;;;;;;;;;;6145922;23;20025;-55
2023/05/26 13:45:09;;;;;;;2.60;1.00;;;;;;;;;;6144460;23;19979;-55
2023/05/26 13:47:36;;;;;;;1.98;1.25;;;;;;;;;;6145395;23;20080;-51
2023/05/26 13:50:03;;;;;;;3.20;1.05;;;;;;;;;;6144535;23;20026;-57
2023/05/26 13:52:47;;;;;;;1.45;0.60;;;;;;;;;;6145168;23;20032;-55
2023/05/26 13:55:14;;;;;;;2.50;1.20;;;;;;;;;;6139554;23;20477;-64
2023/05/26 13:57:48;;;;;;;0.93;0.80;;;;;;;;;;6143556;23;20449;-64
2023/05/26 14:00:16;;;;;;;3.45;1.00;;;;;;;;;;6143632;23;20034;-64
2023/05/26 14:02:43;;;;;;;2.45;1.15;;;;;;;;;;6143071;23;20056;-64
2023/05/26 14:05:18;;;;;;;3.63;1.10;;;;;;;;;;6144130;23;20109;-64
2023/05/26 14:07:46;;;;;;;2.17;0.98;;;;;;;;;;6144575;23;20025;-64
2023/05/26 14:10:13;;;;;;;4.03;1.25;;;;;;;;;;6145070;23;20366;-64
2023/05/26 14:12:47;;;;;;;1.77;0.95;;;;;;;;;;6144720;23;20152;-64
2023/05/26 14:15:15;;;;;;;5.15;1.05;;;;;;;;;;6145475;23;20029;-65
2023/05/26 14:17:49;;;;;;;3.20;1.25;;;;;;;;;;6144190;23;20092;-64
2023/05/26 14:20:41;;;;;;;1.10;0.82;;;;;;;;;;6144337;23;20052;-59
2023/05/26 14:23:35;;;;;;;1.05;0.90;;;;;;;;;;6143263;23;20021;-55
2023/05/26 14:26:02;;;;;;;2.17;0.93;;;;;;;;;;6141249;23;20622;-51
2023/05/26 14:28:36;;;;;;;5.13;0.90;;;;;;;;;;6144514;23;20026;-53
2023/05/26 14:31:03;;;;;;;2.60;1.08;;;;;;;;;;6143742;23;20080;-49
2023/05/26 14:33:37;;;;;;;8.48;1.63;;;;;;;;;;6146170;23;20450;-51
2023/05/26 14:36:04;;;;;;;;;;;;;;;;;;6146074;23;20076;-50
2023/05/26 14:38:32;;;;;;;2.40;0.90;;;;;;;;;;6145967;23;19921;-59
2023/05/26 14:41:06;;;;;;;3.42;0.82;;;;;;;;;;6146477;23;20105;-59
2023/05/26 14:43:33;;;;;;;1.23;1.00;;;;;;;;;;6146634;23;20029;-59
2023/05/26 14:46:01;;;;;;;3.88;0.85;;;;;;;;;;6147471;23;20083;-59
2023/05/26 14:48:35;;;;;;;3.78;1.10;;;;;;;;;;6146108;23;20064;-58
2023/05/26 14:51:03;;;;;;;1.45;0.90;;;;;;;;;;6146019;23;20021;-52
2023/05/26 14:53:36;;;;;;;6.32;1.20;;;;;;;;;;6146288;23;20029;-54
2023/05/26 14:56:03;;;;;;;1.35;1.00;;;;;;;;;;6144195;23;20485;-50
2023/05/26 14:58:30;;;;;;;3.53;1.02;;;;;;;;;;6145902;23;20044;-52
2023/05/26 15:01:04;;;;;;;2.50;0.80;;;;;;;;;;6145914;23;20021;-55
2023/05/26 15:03:31;;;;;;;2.83;1.40;;;;;;;;;;6146291;23;20025;-50
2023/05/26 15:06:27;;;;;;;2.58;1.15;;;;;;;;;;6147591;23;20027;-59
2023/05/26 15:08:56;;;;;;;2.75;1.10;;;;;;;;;;6145089;23;20108;-59